BGE weather

Decatur County Industrial Air Park
Bainbridge, Georgia, United States

Public forecast

Using degrees Fahrenheit for public forecast. Weather courtesy of forecast.io.

Current aviation weather report (METAR) for Decatur County Industrial Air Park

Retrieved 2019/12/10 01:35 UTC (15 minutes ago):

KBGE 100135Z AUTO 19006KT 10SM CLR 18/15 A3005 RMK AO2 T01790149

Closest aviation forecast (TAF) to Decatur County Industrial Air Park

Closest forecast is Tallahassee Regional Airport, 37.6 nm (69.6 km) SSE. Retrieved 2019-12-10 00:22 UTC (1 hour ago):

TAF KTLH 092320Z 1000/1024 16003KT P6SM BKN020 FM100500 VRB03KT 1/2SM FG OVC003 FM101500 17004KT P6SM BKN015 FM101800 19010KT P6SM SCT015 BKN025